KAKH

Gastonia Municipal Airport

Gastonia, North Carolina, USA
METAR KAKH 212354Z AUTO 00000KT 10SM CLR 22/17 A3038 RMK AO2 SLP284 T02170172 10267 20217 53003
Observed Flight Rules
Feb-21 @ 23:54 UTC (5 hours ago) Visual Flight Rules
Wind Visibility Clouds
Calm 10 miles
  • Clear skies
Temperatures Readings
Current 22°C / 72°F
Dewpoint 17°C / 63°F
Humidity 73%
Altimeter 30.38" Hg
Pressure 1028.4 hPa
Elevation 243
METAR KAKH 212354Z AUTO 00000KT 10SM CLR 22/17 A3038 RMK AO2 SLP284 T02170172 10267 20217 53003
Observed Flight Rules
Feb-21 @ 23:54 UTC
(5 hours ago)
VFR
Wind Visibility
Calm 10 miles
Clouds
  • Clear skies
Temperature Dewpoint
22°C / 72°F 17°C / 63°F
Humidity Altimeter Pressure
73% 30.38" Hg 1028.4 hPa